createdAt,value
2018-04-25T00:00:53.798Z,0.00
2018-04-25T00:01:53.791Z,0.00
2018-04-25T00:02:53.795Z,0.00
2018-04-25T00:03:53.791Z,0.00
2018-04-25T00:04:53.791Z,0.00
2018-04-25T00:05:53.788Z,0.00
2018-04-25T00:06:53.793Z,0.00
2018-04-25T00:07:53.792Z,0.00
2018-04-25T00:08:53.788Z,0.00
2018-04-25T00:09:53.786Z,0.00
2018-04-25T00:10:53.785Z,0.00
2018-04-25T00:11:53.789Z,0.00
2018-04-25T00:12:53.785Z,0.00
2018-04-25T00:13:53.784Z,0.00
2018-04-25T00:14:53.803Z,0.00
2018-04-25T00:15:53.819Z,0.00
2018-04-25T00:16:53.785Z,0.00
2018-04-25T00:17:53.783Z,0.00
2018-04-25T00:18:53.790Z,0.00
2018-04-25T00:19:53.788Z,0.00
2018-04-25T00:20:53.782Z,0.00
2018-04-25T00:21:53.819Z,0.00
2018-04-25T00:22:53.781Z,0.00
2018-04-25T00:23:53.779Z,0.00
2018-04-25T00:24:54.240Z,0.00
2018-04-25T00:25:53.782Z,0.00
2018-04-25T00:26:53.943Z,0.00
2018-04-25T00:27:53.802Z,0.00
2018-04-25T00:28:53.779Z,0.00
2018-04-25T00:29:53.776Z,0.00
2018-04-25T00:30:53.775Z,0.00
2018-04-25T00:31:53.779Z,0.00
2018-04-25T00:32:53.779Z,0.00
2018-04-25T00:33:53.804Z,0.00
2018-04-25T00:34:53.773Z,0.00
2018-04-25T00:35:53.773Z,0.00
2018-04-25T00:36:53.773Z,0.00
2018-04-25T00:37:53.772Z,0.00
2018-04-25T00:38:53.771Z,0.00
2018-04-25T00:39:53.778Z,0.00
2018-04-25T00:40:53.771Z,0.00
2018-04-25T00:41:53.769Z,0.00
2018-04-25T00:42:53.769Z,0.00
2018-04-25T00:43:53.769Z,0.00
2018-04-25T00:44:53.769Z,0.00
2018-04-25T00:45:53.781Z,0.00
2018-04-25T00:46:53.767Z,0.00
2018-04-25T00:47:53.769Z,0.00
2018-04-25T00:48:53.776Z,0.00
2018-04-25T00:49:53.764Z,0.00
2018-04-25T00:50:53.763Z,0.00
2018-04-25T00:51:53.774Z,0.00
2018-04-25T00:52:53.764Z,0.00
2018-04-25T00:53:53.765Z,0.00
2018-04-25T00:54:53.797Z,0.00
2018-04-25T00:55:54.670Z,0.00
2018-04-25T00:56:53.767Z,0.00
2018-04-25T00:57:53.759Z,0.00
2018-04-25T00:58:53.758Z,0.00
2018-04-25T00:59:53.785Z,0.00
2018-04-25T01:00:53.759Z,0.00
2018-04-25T01:01:53.785Z,0.00
2018-04-25T01:02:53.764Z,0.00
2018-04-25T01:03:53.754Z,0.00
2018-04-25T01:04:53.757Z,0.00
2018-04-25T01:05:53.761Z,0.00
2018-04-25T01:06:53.752Z,0.00
2018-04-25T01:07:53.750Z,0.00
2018-04-25T01:08:53.782Z,0.00
2018-04-25T01:09:53.750Z,0.00
2018-04-25T01:10:53.752Z,0.00
2018-04-25T01:11:53.769Z,0.00
2018-04-25T01:12:53.747Z,0.00
2018-04-25T01:13:53.745Z,0.00
2018-04-25T01:14:53.751Z,0.00
2018-04-25T01:15:53.750Z,0.00
2018-04-25T01:16:53.762Z,0.00
2018-04-25T01:17:53.741Z,0.00
2018-04-25T01:18:53.740Z,0.00
2018-04-25T01:19:53.740Z,0.00
2018-04-25T01:20:53.747Z,0.00
2018-04-25T01:21:53.738Z,0.00
2018-04-25T01:22:53.739Z,0.00
2018-04-25T01:23:53.737Z,0.00
2018-04-25T01:24:53.737Z,0.00
2018-04-25T01:25:53.738Z,0.00
2018-04-25T01:26:53.736Z,0.00
2018-04-25T01:27:53.733Z,0.00
2018-04-25T01:28:53.733Z,0.00
2018-04-25T01:29:53.730Z,0.00
2018-04-25T01:30:53.733Z,0.00
2018-04-25T01:31:53.738Z,0.00
2018-04-25T01:32:53.729Z,0.00
2018-04-25T01:33:53.730Z,0.00
2018-04-25T01:34:53.726Z,0.00
2018-04-25T01:35:53.728Z,0.00
2018-04-25T01:36:53.725Z,0.00
2018-04-25T01:37:53.723Z,0.00
2018-04-25T01:38:53.725Z,0.00
2018-04-25T01:39:53.724Z,0.00
2018-04-25T01:40:53.721Z,0.00
2018-04-25T01:41:53.721Z,0.00
2018-04-25T01:42:53.719Z,0.00
2018-04-25T01:43:53.718Z,0.00
2018-04-25T01:44:53.720Z,0.00
2018-04-25T01:45:53.719Z,0.00
2018-04-25T01:46:53.714Z,0.00
2018-04-25T01:47:53.714Z,0.00
2018-04-25T01:48:53.714Z,0.00
2018-04-25T01:49:53.711Z,0.00
2018-04-25T01:50:53.710Z,0.00
2018-04-25T01:51:53.709Z,0.00
2018-04-25T01:52:53.718Z,0.00
2018-04-25T01:53:53.707Z,0.00
2018-04-25T01:54:53.706Z,0.00
2018-04-25T01:55:53.705Z,0.00
2018-04-25T01:56:53.706Z,0.00
2018-04-25T01:57:53.703Z,0.00
2018-04-25T01:58:53.708Z,0.00
2018-04-25T01:59:53.703Z,0.00
2018-04-25T02:00:53.706Z,0.00
2018-04-25T02:01:53.699Z,0.00
2018-04-25T02:02:53.698Z,0.00
2018-04-25T02:03:53.697Z,0.00
2018-04-25T02:04:53.699Z,0.00
2018-04-25T02:05:53.698Z,0.00
2018-04-25T02:06:53.699Z,0.00
2018-04-25T02:07:53.695Z,0.00
2018-04-25T02:08:53.699Z,0.00
2018-04-25T02:09:53.693Z,0.00
2018-04-25T02:10:53.696Z,0.00
2018-04-25T02:11:53.694Z,0.00
2018-04-25T02:12:53.695Z,0.00
2018-04-25T02:13:53.690Z,0.00
2018-04-25T02:14:53.689Z,0.00
2018-04-25T02:15:53.688Z,0.00
2018-04-25T02:16:53.689Z,0.00
2018-04-25T02:17:53.687Z,0.00
2018-04-25T02:18:53.685Z,0.00
2018-04-25T02:19:53.688Z,0.00
2018-04-25T02:20:53.685Z,0.00
2018-04-25T02:21:53.684Z,0.00
2018-04-25T02:22:53.682Z,0.00
2018-04-25T02:23:53.684Z,0.00
2018-04-25T02:24:53.680Z,0.00
2018-04-25T02:25:53.680Z,0.00
2018-04-25T02:26:53.680Z,0.00
2018-04-25T02:27:53.806Z,0.00
2018-04-25T02:28:53.677Z,0.00
2018-04-25T02:29:53.675Z,0.00
2018-04-25T02:30:53.677Z,0.00
2018-04-25T02:31:53.675Z,0.00
2018-04-25T02:32:53.673Z,0.00
2018-04-25T02:33:53.672Z,0.00
2018-04-25T02:34:53.673Z,0.00
2018-04-25T02:35:53.670Z,0.00
2018-04-25T02:36:53.677Z,0.00
2018-04-25T02:37:53.667Z,0.00
2018-04-25T02:38:53.668Z,0.00
2018-04-25T02:39:53.679Z,0.00
2018-04-25T02:40:53.668Z,0.00
2018-04-25T02:41:53.662Z,0.00
2018-04-25T02:42:53.660Z,0.00
2018-04-25T02:43:53.663Z,0.00
2018-04-25T02:44:53.663Z,0.00
2018-04-25T02:45:53.678Z,0.00
2018-04-25T02:46:53.665Z,0.00
2018-04-25T02:47:53.657Z,0.00
2018-04-25T02:48:53.655Z,0.00
2018-04-25T02:49:53.653Z,0.00
2018-04-25T02:50:53.652Z,0.00
2018-04-25T02:51:53.654Z,0.00
2018-04-25T02:52:53.654Z,0.00
2018-04-25T02:53:53.661Z,0.00
2018-04-25T02:54:53.647Z,0.00
2018-04-25T02:55:53.646Z,0.00
2018-04-25T02:56:53.645Z,0.00
2018-04-25T02:57:53.642Z,0.00
2018-04-25T02:58:54.222Z,0.00
2018-04-25T02:59:53.640Z,0.00
2018-04-25T03:00:53.641Z,0.00
2018-04-25T03:01:53.636Z,0.00
2018-04-25T03:02:53.637Z,0.00
2018-04-25T03:03:53.640Z,0.00
2018-04-25T03:04:53.634Z,0.00
2018-04-25T03:05:53.645Z,0.00
2018-04-25T03:06:53.639Z,0.00
2018-04-25T03:07:53.628Z,0.00
2018-04-25T03:08:53.627Z,0.00
2018-04-25T03:09:53.625Z,0.00
2018-04-25T03:10:53.625Z,0.00
2018-04-25T03:11:53.628Z,0.00
2018-04-25T03:12:53.624Z,0.00
2018-04-25T03:13:53.622Z,0.00
2018-04-25T03:14:53.619Z,0.00
2018-04-25T03:15:53.617Z,0.00
2018-04-25T03:16:53.670Z,0.00
2018-04-25T03:17:53.613Z,0.00
2018-04-25T03:18:53.614Z,0.00
2018-04-25T03:19:53.620Z,0.00
2018-04-25T03:20:53.614Z,0.00
2018-04-25T03:21:53.611Z,0.00
2018-04-25T03:22:53.612Z,0.00
2018-04-25T03:23:53.607Z,0.00
2018-04-25T03:24:53.606Z,0.00
2018-04-25T03:25:53.602Z,0.00
2018-04-25T03:26:53.602Z,0.00
2018-04-25T03:27:53.606Z,0.00
2018-04-25T03:28:53.599Z,0.00
2018-04-25T03:29:54.591Z,0.00
2018-04-25T03:30:53.597Z,0.00
2018-04-25T03:31:53.596Z,0.00
2018-04-25T03:32:53.600Z,0.00
2018-04-25T03:33:53.591Z,0.00
2018-04-25T03:34:53.589Z,0.00
2018-04-25T03:35:53.596Z,0.00
2018-04-25T03:36:53.587Z,0.00
2018-04-25T03:37:53.584Z,0.00
2018-04-25T03:38:53.586Z,0.00
2018-04-25T03:39:53.581Z,0.00
2018-04-25T03:40:53.581Z,0.00
2018-04-25T03:41:53.583Z,0.00
2018-04-25T03:42:53.581Z,0.00
2018-04-25T03:43:53.579Z,0.00
2018-04-25T03:44:53.575Z,0.00
2018-04-25T03:45:53.577Z,0.00
2018-04-25T03:46:53.570Z,0.00
2018-04-25T03:47:53.569Z,0.00
2018-04-25T03:48:53.567Z,0.00
2018-04-25T03:49:53.565Z,0.00
2018-04-25T03:50:53.563Z,0.00
2018-04-25T03:51:53.564Z,0.00
2018-04-25T03:52:53.560Z,0.00
2018-04-25T03:53:53.559Z,0.00
2018-04-25T03:54:53.557Z,0.00
2018-04-25T03:55:53.556Z,0.00
2018-04-25T03:56:53.566Z,0.00
2018-04-25T03:57:53.553Z,0.00
2018-04-25T03:58:53.559Z,0.00
2018-04-25T03:59:53.546Z,0.00
2018-04-25T04:00:53.548Z,0.00
2018-04-25T04:01:53.928Z,0.00
2018-04-25T04:02:53.544Z,0.00
2018-04-25T04:03:53.546Z,0.00
2018-04-25T04:04:53.539Z,0.00
2018-04-25T04:05:53.541Z,0.00
2018-04-25T04:06:53.535Z,5.63
2018-04-25T04:07:53.536Z,5.63
2018-04-25T04:08:53.532Z,5.63
2018-04-25T04:09:53.535Z,5.63
2018-04-25T04:10:53.534Z,5.63
2018-04-25T04:11:53.527Z,5.63
2018-04-25T04:12:53.592Z,5.63
2018-04-25T04:13:53.523Z,5.63
2018-04-25T04:14:53.521Z,5.63
2018-04-25T04:15:53.520Z,5.63
2018-04-25T04:16:53.518Z,5.63
2018-04-25T04:17:53.519Z,5.63
2018-04-25T04:18:53.514Z,5.63
2018-04-25T04:19:53.512Z,5.63
2018-04-25T04:20:53.511Z,5.63
2018-04-25T04:21:53.515Z,5.63
2018-04-25T04:22:53.507Z,11.25
2018-04-25T04:23:53.508Z,11.25
2018-04-25T04:24:53.557Z,11.25
2018-04-25T04:25:53.504Z,11.25
2018-04-25T04:26:53.505Z,11.25
2018-04-25T04:27:53.499Z,11.25
2018-04-25T04:28:53.497Z,11.25
2018-04-25T04:29:53.496Z,16.88
2018-04-25T04:30:53.497Z,16.88
2018-04-25T04:31:53.492Z,16.88
2018-04-25T04:32:53.494Z,16.88
2018-04-25T04:33:53.533Z,16.88
2018-04-25T04:34:53.487Z,22.50
2018-04-25T04:35:53.487Z,22.50
2018-04-25T04:36:53.486Z,22.50
2018-04-25T04:37:53.482Z,22.50
2018-04-25T04:38:53.486Z,22.50
2018-04-25T04:39:53.481Z,22.50
2018-04-25T04:40:53.478Z,22.50
2018-04-25T04:41:53.475Z,22.50
2018-04-25T04:42:53.476Z,22.50
2018-04-25T04:43:53.479Z,22.50
2018-04-25T04:44:53.474Z,22.50
2018-04-25T04:45:53.475Z,28.13
2018-04-25T04:46:53.473Z,28.13
2018-04-25T04:47:53.474Z,28.13
2018-04-25T04:48:53.469Z,28.13
2018-04-25T04:49:53.464Z,33.75
2018-04-25T04:50:53.463Z,33.75
2018-04-25T04:51:53.480Z,33.75
2018-04-25T04:52:53.461Z,39.38
2018-04-25T04:53:53.459Z,39.38
2018-04-25T04:54:53.457Z,39.38
2018-04-25T04:55:53.456Z,50.63
2018-04-25T04:56:53.461Z,78.75
2018-04-25T04:57:53.454Z,73.13
2018-04-25T04:58:53.478Z,67.50
2018-04-25T04:59:53.450Z,84.38
2018-04-25T05:00:53.451Z,84.38
2018-04-25T05:01:53.745Z,95.63
2018-04-25T05:02:53.449Z,106.88
2018-04-25T05:03:53.444Z,106.88
2018-04-25T05:04:53.456Z,112.50
2018-04-25T05:05:53.443Z,123.75
2018-04-25T05:06:55.019Z,118.13
2018-04-25T05:07:53.442Z,123.75
2018-04-25T05:08:53.439Z,123.75
2018-04-25T05:09:53.442Z,123.75
2018-04-25T05:10:53.460Z,123.75
2018-04-25T05:11:53.438Z,129.38
2018-04-25T05:12:53.434Z,129.38
2018-04-25T05:13:53.434Z,129.38
2018-04-25T05:14:53.436Z,135.00
2018-04-25T05:15:53.440Z,135.00
2018-04-25T05:16:53.437Z,140.63
2018-04-25T05:17:53.433Z,146.25
2018-04-25T05:18:53.428Z,146.25
2018-04-25T05:19:53.429Z,140.63
2018-04-25T05:20:53.427Z,151.88
2018-04-25T05:21:53.427Z,151.88
2018-04-25T05:22:53.439Z,157.50
2018-04-25T05:23:53.428Z,163.13
2018-04-25T05:24:53.427Z,163.13
2018-04-25T05:25:53.423Z,225.00
2018-04-25T05:26:53.424Z,236.25
2018-04-25T05:27:53.424Z,185.63
2018-04-25T05:28:53.424Z,174.38
2018-04-25T05:29:53.424Z,225.00
2018-04-25T05:30:53.420Z,236.25
2018-04-25T05:31:53.429Z,151.88
2018-04-25T05:32:54.150Z,343.13
2018-04-25T05:33:53.419Z,241.88
2018-04-25T05:34:53.420Z,185.63
2018-04-25T05:35:53.421Z,185.63
2018-04-25T05:36:53.421Z,191.25
2018-04-25T05:37:53.420Z,253.13
2018-04-25T05:38:53.508Z,230.63
2018-04-25T05:39:53.418Z,185.63
2018-04-25T05:40:53.420Z,191.25
2018-04-25T05:41:53.431Z,129.38
2018-04-25T05:42:53.420Z,95.63
2018-04-25T05:43:53.438Z,106.88
2018-04-25T05:44:53.443Z,95.63
2018-04-25T05:45:53.465Z,95.63
2018-04-25T05:46:53.421Z,90.00
2018-04-25T05:47:53.420Z,84.38
2018-04-25T05:48:53.430Z,146.25
2018-04-25T05:49:53.420Z,174.38
2018-04-25T05:50:53.426Z,208.13
2018-04-25T05:51:53.633Z,225.00
2018-04-25T05:52:53.620Z,196.88
2018-04-25T05:53:53.424Z,129.38
2018-04-25T05:54:53.421Z,101.25
2018-04-25T05:55:53.423Z,95.63
2018-04-25T05:56:53.425Z,101.25
2018-04-25T05:57:53.485Z,106.88
2018-04-25T05:58:53.423Z,112.50
2018-04-25T05:59:53.422Z,123.75
2018-04-25T06:00:53.424Z,129.38
2018-04-25T06:01:53.423Z,146.25
2018-04-25T06:02:53.430Z,163.13
2018-04-25T06:03:53.439Z,174.38
2018-04-25T06:04:53.469Z,157.50
2018-04-25T06:05:53.440Z,151.88
2018-04-25T06:06:53.846Z,135.00
2018-04-25T06:07:53.424Z,151.88
2018-04-25T06:08:53.430Z,140.63
2018-04-25T06:09:53.430Z,123.75
2018-04-25T06:10:53.426Z,135.00
2018-04-25T06:11:53.489Z,180.00
2018-04-25T06:12:53.448Z,185.63
2018-04-25T06:13:53.427Z,180.00
2018-04-25T06:14:53.429Z,157.50
2018-04-25T06:15:53.561Z,163.13
2018-04-25T06:16:53.434Z,146.25
2018-04-25T06:17:53.501Z,140.63
2018-04-25T06:18:53.433Z,151.88
2018-04-25T06:19:53.433Z,151.88
2018-04-25T06:20:53.433Z,168.75
2018-04-25T06:21:53.435Z,168.75
2018-04-25T06:22:54.467Z,163.13
2018-04-25T06:23:53.446Z,157.50
2018-04-25T06:24:53.441Z,151.88
2018-04-25T06:25:53.515Z,146.25
2018-04-25T06:26:53.444Z,140.63
2018-04-25T06:27:53.442Z,140.63
2018-04-25T06:28:53.442Z,140.63
2018-04-25T06:29:53.443Z,140.63
2018-04-25T06:30:53.449Z,135.00
2018-04-25T06:31:53.459Z,129.38
2018-04-25T06:32:53.447Z,123.75
2018-04-25T06:33:53.498Z,123.75
2018-04-25T06:34:53.528Z,123.75
2018-04-25T06:35:53.456Z,129.38
2018-04-25T06:36:54.612Z,135.00
2018-04-25T06:37:53.546Z,135.00
2018-04-25T06:38:53.457Z,129.38
2018-04-25T06:39:53.460Z,123.75
2018-04-25T06:40:53.460Z,123.75
2018-04-25T06:41:53.475Z,118.13
2018-04-25T06:42:54.086Z,118.13
2018-04-25T06:43:53.465Z,112.50
2018-04-25T06:44:53.489Z,106.88
2018-04-25T06:45:53.469Z,101.25
2018-04-25T06:46:53.469Z,95.63
2018-04-25T06:47:53.470Z,90.00
2018-04-25T06:48:53.472Z,90.00
2018-04-25T06:49:53.472Z,90.00
2018-04-25T06:50:53.473Z,90.00
2018-04-25T06:51:53.481Z,84.38
2018-04-25T06:52:53.479Z,90.00
2018-04-25T06:53:53.479Z,90.00
2018-04-25T06:54:53.484Z,90.00
2018-04-25T06:55:53.483Z,84.38
2018-04-25T06:56:53.485Z,78.75
2018-04-25T06:57:53.487Z,78.75
2018-04-25T06:58:53.508Z,73.13
2018-04-25T06:59:53.491Z,73.13
2018-04-25T07:00:53.496Z,73.13
2018-04-25T07:01:53.496Z,73.13
2018-04-25T07:02:53.507Z,67.50
2018-04-25T07:03:53.500Z,67.50
2018-04-25T07:04:53.500Z,67.50
2018-04-25T07:05:53.502Z,73.13
2018-04-25T07:06:53.504Z,73.13
2018-04-25T07:07:53.525Z,73.13
2018-04-25T07:08:53.507Z,78.75
2018-04-25T07:09:53.532Z,84.38
2018-04-25T07:10:53.528Z,84.38
2018-04-25T07:11:53.513Z,84.38
2018-04-25T07:12:53.518Z,78.75
2018-04-25T07:13:53.526Z,78.75
2018-04-25T07:14:53.525Z,73.13
2018-04-25T07:15:53.519Z,73.13
2018-04-25T07:16:53.523Z,78.75
2018-04-25T07:17:53.538Z,90.00
2018-04-25T07:18:53.525Z,84.38
2018-04-25T07:19:53.527Z,78.75
2018-04-25T07:20:53.531Z,73.13
2018-04-25T07:21:53.532Z,73.13
2018-04-25T07:22:53.535Z,78.75
2018-04-25T07:23:53.566Z,73.13
2018-04-25T07:24:53.537Z,73.13
2018-04-25T07:25:53.540Z,73.13
2018-04-25T07:26:53.540Z,78.75
2018-04-25T07:27:53.548Z,78.75
2018-04-25T07:28:53.553Z,78.75
2018-04-25T07:29:53.545Z,84.38
2018-04-25T07:30:53.554Z,84.38
2018-04-25T07:31:53.558Z,84.38
2018-04-25T07:32:53.558Z,84.38
2018-04-25T07:33:53.581Z,84.38
2018-04-25T07:34:53.557Z,84.38
2018-04-25T07:35:53.732Z,78.75
2018-04-25T07:36:53.564Z,78.75
2018-04-25T07:37:53.562Z,84.38
2018-04-25T07:38:53.564Z,84.38
2018-04-25T07:39:53.570Z,90.00
2018-04-25T07:40:53.567Z,90.00
2018-04-25T07:41:53.610Z,90.00
2018-04-25T07:42:53.574Z,90.00
2018-04-25T07:43:53.578Z,95.63
2018-04-25T07:44:53.577Z,95.63
2018-04-25T07:45:53.592Z,118.13
2018-04-25T07:46:53.585Z,123.75
2018-04-25T07:47:53.583Z,101.25
2018-04-25T07:48:53.585Z,90.00
2018-04-25T07:49:53.587Z,90.00
2018-04-25T07:50:53.616Z,78.75
2018-04-25T07:51:53.591Z,73.13
2018-04-25T07:52:53.594Z,73.13
2018-04-25T07:53:53.594Z,84.38
2018-04-25T07:54:53.602Z,95.63
2018-04-25T07:55:53.604Z,101.25
2018-04-25T07:56:53.604Z,112.50
2018-04-25T07:57:53.636Z,106.88
2018-04-25T07:58:53.609Z,101.25
2018-04-25T07:59:53.610Z,101.25
2018-04-25T08:00:53.615Z,106.88
2018-04-25T08:01:53.615Z,106.88
2018-04-25T08:02:53.617Z,118.13
2018-04-25T08:03:53.618Z,123.75
2018-04-25T08:04:53.639Z,112.50
2018-04-25T08:05:53.704Z,112.50
2018-04-25T08:06:54.136Z,123.75
2018-04-25T08:07:53.629Z,140.63
2018-04-25T08:08:53.661Z,157.50
2018-04-25T08:09:53.635Z,157.50
2018-04-25T08:10:53.642Z,151.88
2018-04-25T08:11:53.649Z,157.50
2018-04-25T08:12:53.648Z,135.00
2018-04-25T08:13:53.645Z,123.75
2018-04-25T08:14:53.695Z,146.25
2018-04-25T08:15:53.677Z,157.50
2018-04-25T08:16:53.669Z,140.63
2018-04-25T08:17:53.663Z,151.88
2018-04-25T08:18:53.658Z,163.13
2018-04-25T08:19:53.661Z,151.88
2018-04-25T08:20:53.671Z,157.50
2018-04-25T08:21:53.667Z,174.38
2018-04-25T08:22:53.672Z,191.25
2018-04-25T08:23:53.678Z,151.88
2018-04-25T08:24:53.687Z,140.63
2018-04-25T08:25:53.685Z,106.88
2018-04-25T08:26:53.686Z,95.63
2018-04-25T08:27:53.687Z,84.38
2018-04-25T08:28:53.692Z,67.50
2018-04-25T08:29:53.700Z,61.88
2018-04-25T08:30:53.697Z,73.13
2018-04-25T08:31:53.701Z,78.75
2018-04-25T08:32:53.715Z,61.88
2018-04-25T08:33:53.821Z,56.25
2018-04-25T08:34:53.778Z,56.25
2018-04-25T08:35:53.726Z,50.63
2018-04-25T08:36:53.717Z,67.50
2018-04-25T08:37:54.623Z,118.13
2018-04-25T08:38:53.731Z,140.63
2018-04-25T08:39:53.731Z,151.88
2018-04-25T08:40:53.757Z,163.13
2018-04-25T08:41:53.734Z,163.13
2018-04-25T08:42:53.748Z,140.63
2018-04-25T08:43:53.746Z,151.88
2018-04-25T08:44:53.880Z,168.75
2018-04-25T08:45:56.739Z,196.88
2018-04-25T08:46:54.753Z,163.13
2018-04-25T08:47:55.582Z,151.88
2018-04-25T08:48:53.766Z,191.25
2018-04-25T08:49:53.777Z,168.75
2018-04-25T08:50:53.768Z,151.88
2018-04-25T08:51:53.767Z,129.38
2018-04-25T08:52:57.132Z,135.00
2018-04-25T08:53:53.848Z,140.63
2018-04-25T08:54:53.785Z,202.50
2018-04-25T08:55:53.781Z,393.75
2018-04-25T08:56:53.785Z,472.50
2018-04-25T08:57:53.919Z,163.13
2018-04-25T08:58:53.793Z,253.13
2018-04-25T08:59:53.796Z,1006.88
2018-04-25T09:00:53.819Z,196.88
2018-04-25T09:01:53.804Z,1080.00
2018-04-25T09:02:53.813Z,528.75
2018-04-25T09:03:53.837Z,281.25
2018-04-25T09:04:53.822Z,225.00
2018-04-25T09:05:53.853Z,703.13
2018-04-25T09:06:53.870Z,202.50
2018-04-25T09:07:53.835Z,213.75
2018-04-25T09:08:55.133Z,185.63
2018-04-25T09:09:53.841Z,135.00
2018-04-25T09:10:53.963Z,140.63
2018-04-25T09:11:53.929Z,140.63
2018-04-25T09:12:53.923Z,101.25
2018-04-25T09:13:53.863Z,106.88
2018-04-25T09:14:53.874Z,112.50
2018-04-25T09:15:53.875Z,157.50
2018-04-25T09:16:53.883Z,174.38
2018-04-25T09:17:53.885Z,129.38
2018-04-25T09:18:53.958Z,146.25
2018-04-25T09:19:53.896Z,151.88
2018-04-25T09:20:53.903Z,163.13
2018-04-25T09:21:53.911Z,163.13
2018-04-25T09:22:53.964Z,180.00
2018-04-25T09:23:53.925Z,236.25
2018-04-25T09:24:53.922Z,196.88
2018-04-25T09:25:53.928Z,174.38
2018-04-25T09:26:54.012Z,174.38
2018-04-25T09:27:53.939Z,185.63
2018-04-25T09:28:53.943Z,191.25
2018-04-25T09:29:53.945Z,185.63
2018-04-25T09:30:53.954Z,219.38
2018-04-25T09:31:53.961Z,253.13
2018-04-25T09:32:53.993Z,219.38
2018-04-25T09:33:53.972Z,191.25
2018-04-25T09:34:53.971Z,146.25
2018-04-25T09:35:53.984Z,219.38
2018-04-25T09:36:53.986Z,196.88
2018-04-25T09:37:53.980Z,135.00
2018-04-25T09:38:54.093Z,225.00
2018-04-25T09:39:53.994Z,225.00
2018-04-25T09:40:54.249Z,180.00
2018-04-25T09:41:54.000Z,230.63
2018-04-25T09:42:54.043Z,247.50
2018-04-25T09:43:54.010Z,258.75
2018-04-25T09:44:54.609Z,258.75
2018-04-25T09:45:54.123Z,219.38
2018-04-25T09:46:54.028Z,168.75
2018-04-25T09:47:54.028Z,174.38
2018-04-25T09:48:54.068Z,219.38
2018-04-25T09:49:54.042Z,208.13
2018-04-25T09:50:54.075Z,196.88
2018-04-25T09:51:54.133Z,185.63
2018-04-25T09:52:54.104Z,208.13
2018-04-25T09:53:54.098Z,168.75
2018-04-25T09:54:55.596Z,180.00
2018-04-25T09:55:54.065Z,202.50
2018-04-25T09:56:54.095Z,196.88
2018-04-25T09:57:54.121Z,213.75
2018-04-25T09:58:54.159Z,157.50
2018-04-25T09:59:54.089Z,146.25
2018-04-25T10:00:54.395Z,247.50
2018-04-25T10:01:54.092Z,185.63
2018-04-25T10:02:54.097Z,213.75
2018-04-25T10:03:54.160Z,258.75
2018-04-25T10:04:54.335Z,163.13
2018-04-25T10:05:54.115Z,146.25
2018-04-25T10:06:54.119Z,140.63
2018-04-25T10:07:54.541Z,191.25
2018-04-25T10:08:54.284Z,213.75
2018-04-25T10:09:54.136Z,219.38
2018-04-25T10:10:54.193Z,258.75
2018-04-25T10:11:56.267Z,253.13
2018-04-25T10:12:54.143Z,281.25
2018-04-25T10:13:54.149Z,258.75
2018-04-25T10:14:54.157Z,225.00
2018-04-25T10:15:54.159Z,258.75
2018-04-25T10:16:54.162Z,236.25
2018-04-25T10:17:54.173Z,208.13
2018-04-25T10:18:54.172Z,247.50
2018-04-25T10:19:54.181Z,168.75
2018-04-25T10:20:54.203Z,225.00
2018-04-25T10:21:54.213Z,174.38
2018-04-25T10:22:54.191Z,191.25
2018-04-25T10:23:54.224Z,191.25
2018-04-25T10:24:54.204Z,185.63
2018-04-25T10:25:55.767Z,185.63
2018-04-25T10:26:54.214Z,230.63
2018-04-25T10:27:54.215Z,253.13
2018-04-25T10:28:54.259Z,281.25
2018-04-25T10:29:54.227Z,264.38
2018-04-25T10:30:54.257Z,275.63
2018-04-25T10:31:54.312Z,230.63
2018-04-25T10:32:54.249Z,455.63
2018-04-25T10:33:54.307Z,168.75
2018-04-25T10:34:54.256Z,106.88
2018-04-25T10:35:54.261Z,123.75
2018-04-25T10:36:54.261Z,101.25
2018-04-25T10:37:54.265Z,101.25
2018-04-25T10:38:54.276Z,129.38
2018-04-25T10:39:54.299Z,118.13
2018-04-25T10:40:54.443Z,118.13
2018-04-25T10:41:54.318Z,106.88
2018-04-25T10:42:54.291Z,129.38
2018-04-25T10:43:54.301Z,185.63
2018-04-25T10:44:54.302Z,163.13
2018-04-25T10:45:54.401Z,219.38
2018-04-25T10:46:54.403Z,388.13
2018-04-25T10:47:54.320Z,646.88
2018-04-25T10:48:54.359Z,382.50
2018-04-25T10:49:54.332Z,241.88
2018-04-25T10:50:54.348Z,320.63
2018-04-25T10:51:54.337Z,382.50
2018-04-25T10:52:54.341Z,360.00
2018-04-25T10:53:54.346Z,315.00
2018-04-25T10:54:54.352Z,258.75
2018-04-25T10:55:54.564Z,298.13
2018-04-25T10:56:54.382Z,303.75
2018-04-25T10:57:54.372Z,275.63
2018-04-25T10:58:54.375Z,258.75
2018-04-25T10:59:54.460Z,343.13
2018-04-25T11:00:54.388Z,320.63
2018-04-25T11:01:54.397Z,326.25
2018-04-25T11:02:54.401Z,354.38
2018-04-25T11:03:54.956Z,360.00
2018-04-25T11:04:55.136Z,309.38
2018-04-25T11:05:54.421Z,196.88
2018-04-25T11:06:54.436Z,180.00
2018-04-25T11:07:54.432Z,208.13
2018-04-25T11:08:54.437Z,146.25
2018-04-25T11:09:54.439Z,106.88
2018-04-25T11:10:54.450Z,84.38
2018-04-25T11:11:54.939Z,67.50
2018-04-25T11:12:54.475Z,61.88
2018-04-25T11:13:54.464Z,56.25
2018-04-25T11:14:54.468Z,50.63
2018-04-25T11:15:54.499Z,50.63
2018-04-25T11:16:54.563Z,50.63
2018-04-25T11:17:54.490Z,56.25
2018-04-25T11:18:54.486Z,56.25
2018-04-25T11:19:54.495Z,56.25
2018-04-25T11:20:54.507Z,56.25
2018-04-25T11:21:55.138Z,56.25
2018-04-25T11:22:54.508Z,50.63
2018-04-25T11:23:54.513Z,50.63
2018-04-25T11:24:54.519Z,56.25
2018-04-25T11:25:54.523Z,50.63
2018-04-25T11:26:54.533Z,50.63
2018-04-25T11:27:54.532Z,50.63
2018-04-25T11:28:54.536Z,50.63
2018-04-25T11:29:54.539Z,56.25
2018-04-25T11:30:54.543Z,61.88
2018-04-25T11:31:54.620Z,73.13
2018-04-25T11:32:54.555Z,73.13
2018-04-25T11:33:54.560Z,73.13
2018-04-25T11:34:54.562Z,84.38
2018-04-25T11:35:54.570Z,101.25
2018-04-25T11:36:54.576Z,118.13
2018-04-25T11:37:54.572Z,174.38
2018-04-25T11:38:57.144Z,275.63
2018-04-25T11:39:54.583Z,281.25
2018-04-25T11:40:54.588Z,225.00
2018-04-25T11:41:54.594Z,151.88
2018-04-25T11:42:55.491Z,140.63
2018-04-25T11:43:54.600Z,174.38
2018-04-25T11:44:54.615Z,168.75
2018-04-25T11:45:56.148Z,146.25
2018-04-25T11:46:54.618Z,151.88
2018-04-25T11:47:54.621Z,180.00
2018-04-25T11:48:54.630Z,253.13
2018-04-25T11:49:55.172Z,213.75
2018-04-25T11:50:55.533Z,140.63
2018-04-25T11:51:54.637Z,129.38
2018-04-25T11:52:54.640Z,151.88
2018-04-25T11:53:54.668Z,163.13
2018-04-25T11:54:54.649Z,168.75
2018-04-25T11:55:54.655Z,168.75
2018-04-25T11:56:55.135Z,163.13
2018-04-25T11:57:54.672Z,163.13
2018-04-25T11:58:55.688Z,168.75
2018-04-25T11:59:54.674Z,191.25
2018-04-25T12:00:54.677Z,208.13
2018-04-25T12:01:54.919Z,241.88
2018-04-25T12:02:54.857Z,208.13
2018-04-25T12:03:54.691Z,208.13
2018-04-25T12:04:54.705Z,225.00
2018-04-25T12:05:54.700Z,264.38
2018-04-25T12:06:55.198Z,275.63
2018-04-25T12:07:54.711Z,309.38
2018-04-25T12:08:54.950Z,247.50
2018-04-25T12:09:54.718Z,253.13
2018-04-25T12:10:54.725Z,236.25
2018-04-25T12:11:54.728Z,253.13
2018-04-25T12:12:55.657Z,202.50
2018-04-25T12:13:54.774Z,168.75
2018-04-25T12:14:54.742Z,202.50
2018-04-25T12:15:54.746Z,163.13
2018-04-25T12:16:54.751Z,140.63
2018-04-25T12:17:54.760Z,157.50
2018-04-25T12:18:54.765Z,129.38
2018-04-25T12:19:54.771Z,118.13
2018-04-25T12:20:54.769Z,112.50
2018-04-25T12:21:54.773Z,112.50
2018-04-25T12:22:55.659Z,112.50
2018-04-25T12:23:54.816Z,118.13
2018-04-25T12:24:54.788Z,129.38
2018-04-25T12:25:54.793Z,146.25
2018-04-25T12:26:54.818Z,168.75
2018-04-25T12:27:54.802Z,185.63
2018-04-25T12:28:54.810Z,219.38
2018-04-25T12:29:54.810Z,253.13
2018-04-25T12:30:54.815Z,286.88
2018-04-25T12:31:54.828Z,298.13
2018-04-25T12:32:54.825Z,309.38
2018-04-25T12:33:54.830Z,298.13
2018-04-25T12:34:54.840Z,264.38
2018-04-25T12:35:54.900Z,258.75
2018-04-25T12:36:54.922Z,309.38
2018-04-25T12:37:54.892Z,337.50
2018-04-25T12:38:54.856Z,286.88
2018-04-25T12:39:54.864Z,258.75
2018-04-25T12:40:54.865Z,236.25
2018-04-25T12:41:54.869Z,174.38
2018-04-25T12:42:54.895Z,129.38
2018-04-25T12:43:54.956Z,157.50
2018-04-25T12:44:54.914Z,157.50
2018-04-25T12:45:54.966Z,163.13
2018-04-25T12:46:54.890Z,174.38
2018-04-25T12:47:54.897Z,151.88
2018-04-25T12:48:54.917Z,157.50
2018-04-25T12:49:55.062Z,140.63